地図

経路データ

SID SEASON NUMBER BASIN SUBBASIN NAME ISO_TIME NATURE LAT LON WMO_WIND WMO_PRES WMO_AGENCY TRACK_TYPE DIST2LAND LANDFALL IFLAG USA_AGENCY USA_ATCF_ID USA_LAT USA_LON USA_RECORD USA_STATUS USA_WIND USA_PRES USA_SSHS USA_R34_NE USA_R34_SE USA_R34_SW USA_R34_NW USA_R50_NE USA_R50_SE USA_R50_SW USA_R50_NW USA_R64_NE USA_R64_SE USA_R64_SW USA_R64_NW USA_POCI USA_ROCI USA_RMW USA_EYE TOKYO_LAT TOKYO_LON TOKYO_GRADE TOKYO_WIND TOKYO_PRES TOKYO_R50_DIR TOKYO_R50_LONG TOKYO_R50_SHORT TOKYO_R30_DIR TOKYO_R30_LONG TOKYO_R30_SHORT TOKYO_LAND CMA_LAT CMA_LON CMA_CAT CMA_WIND CMA_PRES HKO_LAT HKO_LON HKO_CAT HKO_WIND HKO_PRES NEWDELHI_LAT NEWDELHI_LON NEWDELHI_GRADE NEWDELHI_WIND NEWDELHI_PRES NEWDELHI_CI NEWDELHI_DP NEWDELHI_POCI REUNION_LAT REUNION_LON REUNION_TYPE REUNION_WIND REUNION_PRES REUNION_TNUM REUNION_CI REUNION_RMW REUNION_R34_NE REUNION_R34_SE REUNION_R34_SW REUNION_R34_NW REUNION_R50_NE REUNION_R50_SE REUNION_R50_SW REUNION_R50_NW REUNION_R64_NE REUNION_R64_SE REUNION_R64_SW REUNION_R64_NW BOM_LAT BOM_LON BOM_TYPE BOM_WIND BOM_PRES BOM_TNUM BOM_CI BOM_RMW BOM_R34_NE BOM_R34_SE BOM_R34_SW BOM_R34_NW BOM_R50_NE BOM_R50_SE BOM_R50_SW BOM_R50_NW BOM_R64_NE BOM_R64_SE BOM_R64_SW BOM_R64_NW BOM_ROCI BOM_POCI BOM_EYE BOM_POS_METHOD BOM_PRES_METHOD NADI_LAT NADI_LON NADI_CAT NADI_WIND NADI_PRES WELLINGTON_LAT WELLINGTON_LON WELLINGTON_WIND WELLINGTON_PRES DS824_LAT DS824_LON DS824_STAGE DS824_WIND DS824_PRES TD9636_LAT TD9636_LON TD9636_STAGE TD9636_WIND TD9636_PRES TD9635_LAT TD9635_LON TD9635_WIND TD9635_PRES TD9635_ROCI NEUMANN_LAT NEUMANN_LON NEUMANN_CLASS NEUMANN_WIND NEUMANN_PRES MLC_LAT MLC_LON MLC_CLASS MLC_WIND MLC_PRES USA_GUST BOM_GUST BOM_GUST_PER REUNION_GUST REUNION_GUST_PER USA_SEAHGT USA_SEARAD_NE USA_SEARAD_SE USA_SEARAD_SW USA_SEARAD_NW STORM_SPEED STORM_DIR
1954061S18151 1954 11 SP EA NOT_NAMED 1954-03-01 12:00:00 TS -18.3000 150.900 bom main 314 306 O_____O__OO___ jtwc_sh SH111954 -18.3000 150.900 -1 -18.3000 150.900 -18.3000 150.900 TC -18.3000 150.900 2 5 146
1954061S18151 1954 11 SP EA NOT_NAMED 1954-03-01 15:00:00 TS -18.4894 151.035 main 306 306 P_____P__PP___ SH111954 -18.4875 151.027 -1 -18.4875 151.027 -18.4875 151.027 TC -18.4949 151.057 2 5 144
1954061S18151 1954 11 SP EA NOT_NAMED 1954-03-01 18:00:00 TS -18.7030 151.210 bom main 308 308 O_____O__OP___ jtwc_sh SH111954 -18.7000 151.200 -1 -18.7000 151.200 -18.7000 151.200 TC -18.7118 151.242 2 6 140
1954061S18151 1954 11 SP EA NOT_NAMED 1954-03-01 21:00:00 TS -18.9650 151.461 main 317 317 P_____P__PP___ SH111954 -18.9624 151.455 -1 -18.9624 151.455 -18.9624 151.455 TC -18.9729 151.480 2 8 137
1954061S18151 1954 11 SP EA NOT_NAMED 1954-03-02 00:00:00 TS -19.3000 151.800 bom main 331 331 O_____O__OO___ jtwc_sh SH111954 -19.3000 151.800 -1 -19.3000 151.800 -19.3000 151.800 TC -19.3000 151.800 2 11 137
1954061S18151 1954 11 SP EA NOT_NAMED 1954-03-02 03:00:00 TS -19.7273 152.225 main 339 321 P_____P__PP___ SH111954 -19.7350 152.227 -1 -19.7350 152.227 -19.7350 152.227 TC -19.7039 152.216 2 12 136
1954061S18151 1954 11 SP EA NOT_NAMED 1954-03-02 06:00:00 TS -20.1878 152.698 bom main 321 318 O_____O__OP___ jtwc_sh SH111954 -20.2000 152.700 -1 -20.2000 152.700 -20.2000 152.700 TC -20.1512 152.690 2 13 135
1954061S18151 1954 11 SP EA NOT_NAMED 1954-03-02 09:00:00 TS -20.6220 153.183 main 326 319 P_____P__PP___ SH111954 -20.6301 153.187 -1 -20.6301 153.187 -20.6301 153.187 TC -20.5977 153.169 2 12 134
1954061S18151 1954 11 SP EA NOT_NAMED 1954-03-02 12:00:00 TS -21.0000 153.600 bom main 334 332 O_____O__OO___ jtwc_sh SH111954 -21.0000 153.600 -1 -21.0000 153.600 -21.0000 153.600 TC -21.0000 153.600 2 9 137
1954061S18151 1954 11 SP EA NOT_NAMED 1954-03-02 15:00:00 TS -21.2738 153.834 main 337 337 P_____P__PP___ SH111954 -21.2722 153.823 -1 -21.2722 153.823 -21.2722 153.823 TC -21.2787 153.865 2 6 142
1954061S18151 1954 11 SP EA NOT_NAMED 1954-03-02 18:00:00 TS -21.5033 154.020 bom main 348 348 O_____O__OP___ jtwc_sh SH111954 -21.5000 154.000 -1 -21.5000 154.000 -21.5000 154.000 TC -21.5131 154.081 2 6 139
1954061S18151 1954 11 SP EA NOT_NAMED 1954-03-02 21:00:00 TS -21.7364 154.268 main 361 336 P_____P__PP___ SH111954 -21.7348 154.255 -1 -21.7348 154.255 -21.7348 154.255 TC -21.7411 154.306 2 7 133
1954061S18151 1954 11 SP EA NOT_NAMED 1954-03-03 00:00:00 TS -22.0000 154.600 bom main 339 323 O_____O__OO___ jtwc_sh SH111954 -22.0000 154.600 -1 -22.0000 154.600 -22.0000 154.600 TC -22.0000 154.600 2 9 129
1954061S18151 1954 11 SP EA NOT_NAMED 1954-03-03 03:00:00 TS -22.3305 155.056 main 334 321 P_____P__PP___ SH111954 -22.3275 155.063 -1 -22.3275 155.063 -22.3275 155.063 TC -22.3394 155.038 2 12 128
1954061S18151 1954 11 SP EA NOT_NAMED 1954-03-03 06:00:00 TS -22.7032 155.588 bom main 331 330 O_____O__OP___ jtwc_sh SH111954 -22.7000 155.600 -1 -22.7000 155.600 -22.7000 155.600 TC -22.7129 155.552 2 13 128
1954061S18151 1954 11 SP EA NOT_NAMED 1954-03-03 09:00:00 TS -23.1012 156.142 main 341 341 P_____P__PP___ SH111954 -23.1000 156.150 -1 -23.1000 156.150 -23.1000 156.150 TC -23.1048 156.116 2 13 128
1954061S18151 1954 11 SP EA NOT_NAMED 1954-03-03 12:00:00 TS -23.5000 156.700 bom main 374 374 O_____O__OO___ jtwc_sh SH111954 -23.5000 156.700 -1 -23.5000 156.700 -23.5000 156.700 TC -23.5000 156.700 2 12 128
1954061S18151 1954 11 SP EA NOT_NAMED 1954-03-03 15:00:00 TS -23.8452 157.191 main 407 403 P_____P__PP___ SH111954 -23.8495 157.186 -1 -23.8495 157.186 -23.8495 157.186 TC -23.8324 157.208 2 12 127
1954061S18151 1954 11 SP EA NOT_NAMED 1954-03-03 18:00:00 TS -24.1929 157.709 bom main 443 443 O_____O__OP___ jtwc_sh SH111954 -24.2000 157.700 -1 -24.2000 157.700 -24.2000 157.700 TC -24.1718 157.737 2 12 125
1954061S18151 1954 11 SP EA NOT_NAMED 1954-03-03 21:00:00 TS -24.5591 158.299 main 496 496 P_____P__PP___ SH111954 -24.5620 158.291 -1 -24.5620 158.291 -24.5620 158.291 TC -24.5504 158.322 2 14 124
1954061S18151 1954 11 SP EA NOT_NAMED 1954-03-04 00:00:00 TS -25.0000 159.000 bom main 563 563 O_____O__OO___ jtwc_sh SH111954 -25.0000 159.000 -1 -25.0000 159.000 -25.0000 159.000 TC -25.0000 159.000 2 17 126
1954061S18151 1954 11 SP EA NOT_NAMED 1954-03-04 03:00:00 TS -25.5675 159.848 main 646 646 P_____P__PP___ SH111954 -25.5625 159.855 -1 -25.5625 159.855 -25.5625 159.855 TC -25.5827 159.825 2 20 127
1954061S18151 1954 11 SP MM NOT_NAMED 1954-03-04 06:00:00 TS -26.2073 160.787 bom main 679 677 O_____O__OP___ jtwc_sh SH111954 -26.2000 160.800 -1 -26.2000 160.800 -26.2000 160.800 TC -26.2291 160.748 2 21 127
1954061S18151 1954 11 SP MM NOT_NAMED 1954-03-04 09:00:00 TS -26.8699 161.743 main 694 683 P_____P__PP___ SH111954 -26.8647 161.750 -1 -26.8647 161.750 -26.8647 161.750 TC -26.8856 161.723 2 21 127
1954061S18151 1954 11 SP MM NOT_NAMED 1954-03-04 12:00:00 TS -27.5000 162.700 bom main 690 684 O_____O__OO___ jtwc_sh SH111954 -27.5000 162.700 -1 -27.5000 162.700 -27.5000 162.700 TC -27.5000 162.700 2 20 125
1954061S18151 1954 11 SP MM NOT_NAMED 1954-03-04 15:00:00 TS -28.0360 163.616 main 696 696 P_____P__PP___ SH111954 -28.0367 163.609 -1 -28.0367 163.609 -28.0367 163.609 TC -28.0336 163.640 2 19 122
1954061S18151 1954 11 SP MM NOT_NAMED 1954-03-04 18:00:00 TS -28.4992 164.511 bom main 716 713 O_____O__OP___ jtwc_sh SH111954 -28.5000 164.500 -1 -28.5000 164.500 -28.5000 164.500 TC -28.4969 164.544 2 18 119
1954061S18151 1954 11 SP MM NOT_NAMED 1954-03-04 21:00:00 TS -28.9133 165.404 main 737 736 P_____P__PP___ SH111954 -28.9138 165.396 -1 -28.9138 165.396 -28.9138 165.396 TC -28.9119 165.426 2 18 117
1954061S18151 1954 11 SP MM NOT_NAMED 1954-03-05 00:00:00 TS -29.3000 166.300 bom main 771 O_____O__OO___ jtwc_sh SH111954 -29.3000 166.300 -1 -29.3000 166.300 -29.3000 166.300 TC -29.3000 166.300 2 17 116

デジタル台風データ・検索

IBTrACS Databaseについて

本データベースは、米国NOAAが公開する1842年以降の世界の熱帯低気圧のベストトラックデータアーカイブInternational Best Track Archive for Climate Stewardship (IBTrACS)を、ウェブで閲覧しやすい形式に変換したものです。

最終更新日:2021-12-01